Fort Denaud, Florida
Current Conditions -  °F | °C
As of 9:55 AM on Thursday 23 Oct 2014 (Local Time) from KIMM Reporting Station
Clear Clear  
Wind Chill: 73°   Ceiling: Unl
Heat Index: 73°   Visibility: 8mi
Dew Point: 73°   Wind: 9mph
Humidity: 100%   Direction: 50°NE
Pressure: 29.97"   Gusts: NA
Location:  26.6279°N, 81.3332°W
Report Text: KIMM 231355Z AUTO 05008KT 8SM CLR 23/23 A2997 RMK A01 P000
Loading
Personal Weather Stations






























Interactive Weather Map
Tropical Storm Tracking
New forecast layout! Learn more

10-Day Weather Forecast

Advertisements
Track Severe Weather on mobile